Time,TemperatureF,DewpointF,PressureIn,WindDirection,WindDirectionDegrees,WindSpeedMPH,WindSpeedGustMPH,Humidity,HourlyPrecipIn,Conditions,Clouds,dailyrainin,SoftwareType,DateUTC
2013-05-19 00:01:00,75.4,70.6,30.09,ESE,112,3.4,3.4,85,0.00,OVC,OVC,0.00,WeatherDisplay:10.37,2013-05-19 04:01:00,
2013-05-19 00:06:00,75.5,70.7,30.09,SE,138,3.4,3.4,85,0.00,SCT,OVC,0.00,WeatherDisplay:10.37,2013-05-19 04:06:00,
2013-05-19 00:11:00,75.5,70.3,30.09,SSE,149,4.6,4.6,84,0.00,SCT,OVC,0.00,WeatherDisplay:10.37,2013-05-19 04:11:00,
2013-05-19 00:16:00,75.6,70.8,30.09,ESE,122,5.0,5.0,85,0.00,SCT,OVC,0.00,WeatherDisplay:10.37,2013-05-19 04:16:00,
2013-05-19 00:21:00,75.5,70.7,30.09,SE,140,4.6,4.6,85,0.00,SCT,OVC,0.00,WeatherDisplay:10.37,2013-05-19 04:21:00,
2013-05-19 00:26:00,75.5,70.7,30.08,ESE,106,3.4,3.4,85,0.00,SCT,OVC,0.00,WeatherDisplay:10.37,2013-05-19 04:26:00,
2013-05-19 00:31:00,75.5,70.7,30.09,East,96,4.0,4.0,85,0.00,SCT,OVC,0.00,WeatherDisplay:10.37,2013-05-19 04:31:00,
2013-05-19 00:36:00,75.5,70.7,30.09,SE,140,4.0,4.0,85,0.00,SCT,OVC,0.00,WeatherDisplay:10.37,2013-05-19 04:36:00,
2013-05-19 00:41:00,75.5,70.7,30.09,ESE,122,5.0,5.0,85,0.00,SCT,OVC,0.00,WeatherDisplay:10.37,2013-05-19 04:41:00,
2013-05-19 00:46:00,75.5,70.7,30.09,SE,137,4.6,4.6,85,0.00,SCT,OVC,0.00,WeatherDisplay:10.37,2013-05-19 04:46:00,
2013-05-19 00:51:00,75.4,70.6,30.08,SE,124,4.0,4.0,85,0.00,SCT,OVC,0.00,WeatherDisplay:10.37,2013-05-19 04:51:00,
2013-05-19 00:56:00,75.3,70.5,30.08,SE,130,5.8,5.8,85,0.00,SCT,OVC,0.00,WeatherDisplay:10.37,2013-05-19 04:56:00,
2013-05-19 01:01:00,75.2,70.4,30.08,SE,131,4.6,4.6,85,0.00,BKN,OVC,0.00,WeatherDisplay:10.37,2013-05-19 05:01:00,
2013-05-19 01:06:00,75.1,70.3,30.07,East,95,3.4,3.4,85,0.00,BKN,OVC,0.00,WeatherDisplay:10.37,2013-05-19 05:06:00,
2013-05-19 01:11:00,75.1,70.6,30.07,East,100,5.8,5.8,86,0.00,BKN,OVC,0.00,WeatherDisplay:10.37,2013-05-19 05:11:00,
2013-05-19 01:16:00,75.1,70.6,30.07,SE,135,3.4,3.4,86,0.00,BKN,OVC,0.00,WeatherDisplay:10.37,2013-05-19 05:16:00,
2013-05-19 01:21:00,75.1,70.3,30.07,ESE,118,3.4,3.4,85,0.00,BKN,OVC,0.00,WeatherDisplay:10.37,2013-05-19 05:21:00,
2013-05-19 01:26:00,75.0,70.2,30.08,SE,127,3.4,3.4,85,0.00,BKN,OVC,0.00,WeatherDisplay:10.37,2013-05-19 05:26:00,
2013-05-19 01:31:00,75.0,70.5,30.07,ESE,122,4.6,4.6,86,0.00,BKN,OVC,0.00,WeatherDisplay:10.37,2013-05-19 05:31:00,
2013-05-19 01:36:00,74.9,70.4,30.07,SE,137,3.4,3.4,86,0.00,BKN,OVC,0.00,WeatherDisplay:10.37,2013-05-19 05:36:00,
2013-05-19 01:41:00,74.8,70.3,30.06,SE,130,4.6,4.6,86,0.00,BKN,OVC,0.00,WeatherDisplay:10.37,2013-05-19 05:41:00,
2013-05-19 01:46:00,74.6,70.1,30.06,SE,130,3.4,3.4,86,0.00,OVC,OVC,0.00,WeatherDisplay:10.37,2013-05-19 05:46:00,
2013-05-19 01:51:00,74.4,69.9,30.06,East,100,3.4,3.4,86,0.00,OVC,OVC,0.00,WeatherDisplay:10.37,2013-05-19 05:51:00,
2013-05-19 01:56:00,74.3,69.8,30.06,ESE,121,5.8,5.8,86,0.00,OVC,OVC,0.00,WeatherDisplay:10.37,2013-05-19 05:56:00,
2013-05-19 01:59:00,74.3,69.8,30.06,ENE,76,4.0,4.0,86,0.00,OVC,OVC,0.00,WeatherDisplay:10.37,2013-05-19 05:59:00,
2013-05-19 02:01:00,74.3,69.8,30.06,ENE,76,4.0,4.0,86,0.00,OVC,OVC,0.00,WeatherDisplay:10.37,2013-05-19 06:01:00,
2013-05-19 02:06:00,74.3,69.8,30.06,ENE,76,4.0,4.0,86,0.00,OVC,OVC,0.00,WeatherDisplay:10.37,2013-05-19 06:06:00,
2013-05-19 02:12:00,74.3,69.8,30.06,SE,137,6.0,6.0,86,0.00,OVC,OVC,0.00,WeatherDisplay:10.37,2013-05-19 06:12:00,
2013-05-19 02:17:00,74.3,69.8,30.06,ESE,122,3.4,3.4,86,0.00,BKN,OVC,0.00,WeatherDisplay:10.37,2013-05-19 06:17:00,
2013-05-19 02:22:00,74.3,69.8,30.06,SSE,147,3.4,3.4,86,0.00,BKN,OVC,0.00,WeatherDisplay:10.37,2013-05-19 06:22:00,
2013-05-19 02:27:00,74.3,69.8,30.06,SSE,156,3.4,3.4,86,0.00,BKN,OVC,0.00,WeatherDisplay:10.37,2013-05-19 06:27:00,
2013-05-19 02:32:00,74.2,69.7,30.06,SE,127,1.1,0.0,86,0.00,BKN,OVC,0.00,WeatherDisplay:10.37,2013-05-19 06:32:00,
2013-05-19 02:37:00,74.1,70.0,30.06,ESE,120,1.1,1.1,87,0.00,BKN,OVC,0.00,WeatherDisplay:10.37,2013-05-19 06:37:00,
2013-05-19 02:43:00,74.0,69.9,30.06,ESE,120,1.1,0.0,87,0.00,BKN,OVC,0.00,WeatherDisplay:10.37,2013-05-19 06:43:00,
2013-05-19 02:53:00,73.8,69.7,30.06,NNE,18,1.1,0.0,87,0.00,BKN,OVC,0.00,WeatherDisplay:10.37,2013-05-19 06:53:00,
2013-05-19 02:59:00,73.7,69.6,30.05,NNE,18,0.0,0.0,87,0.00,BKN,OVC,0.00,WeatherDisplay:10.37,2013-05-19 06:59:00,
2013-05-19 03:04:00,73.6,69.5,30.05,SSE,166,1.1,0.0,87,0.00,OVC,OVC,0.00,WeatherDisplay:10.37,2013-05-19 07:04:00,
2013-05-19 03:09:00,73.6,69.5,30.05,SSE,166,0.0,0.0,87,0.00,OVC,OVC,0.00,WeatherDisplay:10.37,2013-05-19 07:09:00,
2013-05-19 03:14:00,73.5,69.4,30.05,SSE,166,0.0,0.0,87,0.00,OVC,OVC,0.00,WeatherDisplay:10.37,2013-05-19 07:14:00,
2013-05-19 03:19:00,73.3,69.2,30.05,SSE,166,0.0,0.0,87,0.00,OVC,OVC,0.00,WeatherDisplay:10.37,2013-05-19 07:19:00,
2013-05-19 03:24:00,73.2,69.1,30.05,SSE,166,0.0,0.0,87,0.00,OVC,OVC,0.00,WeatherDisplay:10.37,2013-05-19 07:24:00,
2013-05-19 03:29:00,73.3,69.5,30.05,North,9,1.1,1.1,88,0.00,OVC,OVC,0.00,WeatherDisplay:10.37,2013-05-19 07:29:00,
2013-05-19 03:34:00,73.4,69.6,30.05,North,3,1.1,0.0,88,0.00,OVC,OVC,0.00,WeatherDisplay:10.37,2013-05-19 07:34:00,
2013-05-19 03:40:00,73.4,69.3,30.05,NNW,341,1.1,1.1,87,0.00,OVC,OVC,0.00,WeatherDisplay:10.37,2013-05-19 07:40:00,
2013-05-19 03:45:00,73.4,69.6,30.05,North,350,4.0,4.0,88,0.00,OVC,OVC,0.00,WeatherDisplay:10.37,2013-05-19 07:45:00,
2013-05-19 03:50:00,73.1,69.0,30.05,North,353,7.0,7.0,87,0.00,OVC,OVC,0.00,WeatherDisplay:10.37,2013-05-19 07:50:00,
2013-05-19 03:55:00,72.7,67.9,30.05,SE,143,8.1,8.1,85,0.00,OVC,OVC,0.00,WeatherDisplay:10.37,2013-05-19 07:55:00,
2013-05-19 04:00:00,72.7,67.6,30.05,NNE,21,3.0,9.0,84,0.00,OVC,OVC,0.00,WeatherDisplay:10.37,2013-05-19 08:00:00,
2013-05-19 04:05:00,72.6,67.5,30.05,North,5,5.8,5.8,84,0.00,CLR,OVC,0.00,WeatherDisplay:10.37,2013-05-19 08:05:00,
2013-05-19 04:10:00,72.3,66.8,30.06,WNW,296,9.2,9.2,83,0.00,CLR,OVC,0.00,WeatherDisplay:10.37,2013-05-19 08:10:00,
2013-05-19 04:15:00,72.2,66.0,30.06,NE,43,3.4,3.4,81,0.00,CLR,OVC,0.00,WeatherDisplay:10.37,2013-05-19 08:15:00,
2013-05-19 04:20:00,71.8,65.7,30.07,NNE,18,3.4,3.4,81,0.00,CLR,OVC,0.00,WeatherDisplay:10.37,2013-05-19 08:20:00,
2013-05-19 04:26:00,69.8,65.4,30.06,NNW,340,11.5,11.5,86,0.06,RA,OVC,0.10,WeatherDisplay:10.37,2013-05-19 08:26:00,
2013-05-19 04:33:00,68.1,64.4,30.07,NW,326,10.3,10.3,88,0.36,RA,OVC,0.39,WeatherDisplay:10.37,2013-05-19 08:33:00,
2013-05-19 04:38:00,67.4,64.0,30.06,North,355,11.5,11.5,89,0.66,RA,OVC,0.71,WeatherDisplay:10.37,2013-05-19 08:38:00,
2013-05-19 04:42:00,67.4,64.0,30.06,North,355,5.8,6.3,89,0.71,RA,OVC,0.71,WeatherDisplay:10.37,2013-05-19 08:42:00,
2013-05-19 04:47:00,67.4,64.0,30.06,North,355,5.8,6.3,89,0.71,RA,OVC,0.71,WeatherDisplay:10.37,2013-05-19 08:47:00,
2013-05-19 04:52:00,67.4,64.0,30.06,North,355,5.8,6.3,89,0.71,CLR,OVC,0.71,WeatherDisplay:10.37,2013-05-19 08:52:00,
2013-05-19 04:57:00,67.4,64.0,30.06,North,355,5.8,6.3,89,0.71,CLR,OVC,0.71,WeatherDisplay:10.37,2013-05-19 08:57:00,
2013-05-19 05:02:00,67.4,64.0,30.06,North,355,5.8,6.3,89,0.71,BKN,OVC,0.71,WeatherDisplay:10.37,2013-05-19 09:02:00,
2013-05-19 05:07:00,67.4,64.0,30.06,North,355,5.8,6.3,89,0.71,BKN,OVC,0.71,WeatherDisplay:10.37,2013-05-19 09:07:00,
2013-05-19 05:12:00,67.4,64.0,30.06,North,355,5.8,6.3,89,0.71,BKN,OVC,0.71,WeatherDisplay:10.37,2013-05-19 09:12:00,
2013-05-19 05:17:00,67.4,64.0,30.06,North,355,5.8,6.3,89,0.71,OVC,OVC,0.71,WeatherDisplay:10.37,2013-05-19 09:17:00,
2013-05-19 05:24:00,67.4,64.0,30.06,North,355,5.8,6.3,89,0.71,OVC,OVC,0.71,WeatherDisplay:10.37,2013-05-19 09:24:00,
2013-05-19 05:29:00,67.4,64.0,30.06,North,355,5.8,6.3,89,0.56,OVC,OVC,0.71,WeatherDisplay:10.37,2013-05-19 09:29:00,
2013-05-19 05:34:00,67.4,64.0,30.06,North,355,5.8,6.3,89,0.26,OVC,OVC,0.71,WeatherDisplay:10.37,2013-05-19 09:34:00,
2013-05-19 05:39:00,67.4,64.0,30.06,North,355,5.8,6.3,89,0.00,OVC,OVC,0.71,WeatherDisplay:10.37,2013-05-19 09:39:00,
2013-05-19 05:44:00,67.4,64.0,30.06,North,355,5.8,6.3,89,0.00,OVC,OVC,0.71,WeatherDisplay:10.37,2013-05-19 09:44:00,
2013-05-19 05:49:00,67.4,64.0,30.06,North,355,5.8,6.3,89,0.00,OVC,OVC,0.71,WeatherDisplay:10.37,2013-05-19 09:49:00,
2013-05-19 05:54:00,67.4,64.0,30.06,North,355,5.8,6.3,89,0.00,OVC,OVC,0.71,WeatherDisplay:10.37,2013-05-19 09:54:00,
2013-05-19 05:59:00,67.4,64.0,30.06,North,355,5.8,6.3,89,0.00,OVC,OVC,0.71,WeatherDisplay:10.37,2013-05-19 09:59:00,
2013-05-19 06:04:00,67.4,64.0,30.06,North,355,5.8,6.3,89,0.00,OVC,OVC,0.71,WeatherDisplay:10.37,2013-05-19 10:04:00,
2013-05-19 06:09:00,67.4,64.0,30.06,North,355,5.8,6.3,89,0.00,OVC,OVC,0.71,WeatherDisplay:10.37,2013-05-19 10:09:00,
2013-05-19 06:14:00,67.4,64.0,30.06,North,355,5.8,6.3,89,0.00,OVC,OVC,0.71,WeatherDisplay:10.37,2013-05-19 10:14:00,
2013-05-19 06:19:00,67.4,64.0,30.06,North,355,5.8,6.3,89,0.00,OVC,OVC,0.71,WeatherDisplay:10.37,2013-05-19 10:19:00,
2013-05-19 06:24:00,67.4,64.0,30.06,North,355,5.8,6.3,89,0.00,OVC,OVC,0.71,WeatherDisplay:10.37,2013-05-19 10:24:00,
2013-05-19 06:29:00,67.4,64.0,30.06,North,355,5.8,6.3,89,0.00,OVC,OVC,0.71,WeatherDisplay:10.37,2013-05-19 10:29:00,
2013-05-19 06:34:00,67.4,64.0,30.06,North,355,5.8,6.3,89,0.00,OVC,OVC,0.71,WeatherDisplay:10.37,2013-05-19 10:34:00,
2013-05-19 06:39:00,67.4,64.0,30.06,North,355,5.8,6.3,89,0.00,OVC,OVC,0.71,WeatherDisplay:10.37,2013-05-19 10:39:00,
2013-05-19 06:44:00,67.4,64.0,30.06,North,355,5.8,6.3,89,0.00,OVC,OVC,0.71,WeatherDisplay:10.37,2013-05-19 10:44:00,
2013-05-19 06:49:00,67.4,64.0,30.06,North,355,5.8,6.3,89,0.00,FEW,OVC,0.71,WeatherDisplay:10.37,2013-05-19 10:49:00,
2013-05-19 06:54:00,67.4,64.0,30.06,North,355,5.8,6.3,89,0.00,FEW,OVC,0.71,WeatherDisplay:10.37,2013-05-19 10:54:00,
2013-05-19 06:59:00,67.4,64.0,30.06,North,355,5.8,6.3,89,0.00,FEW,OVC,0.71,WeatherDisplay:10.37,2013-05-19 10:59:00,
2013-05-19 07:04:00,67.4,64.0,30.06,North,355,5.8,6.3,89,0.00,FEW,OVC,0.71,WeatherDisplay:10.37,2013-05-19 11:04:00,
2013-05-19 07:09:00,67.4,64.0,30.06,North,355,5.8,6.3,89,0.00,FEW,OVC,0.71,WeatherDisplay:10.37,2013-05-19 11:09:00,
2013-05-19 07:14:00,67.4,64.0,30.06,North,355,5.8,6.3,89,0.00,FEW,OVC,0.71,WeatherDisplay:10.37,2013-05-19 11:14:00,
2013-05-19 07:19:00,67.4,64.0,30.06,North,355,5.8,6.3,89,0.00,FEW,OVC,0.71,WeatherDisplay:10.37,2013-05-19 11:19:00,
2013-05-19 07:24:00,67.4,64.0,30.06,North,355,5.8,6.3,89,0.00,FEW,OVC,0.71,WeatherDisplay:10.37,2013-05-19 11:24:00,
2013-05-19 07:29:00,67.4,64.0,30.06,North,355,5.8,6.3,89,0.00,FEW,OVC,0.71,WeatherDisplay:10.37,2013-05-19 11:29:00,
2013-05-19 07:39:00,67.4,64.0,30.06,North,355,5.8,6.3,89,0.00,FEW,OVC,0.71,WeatherDisplay:10.37,2013-05-19 11:39:00,
2013-05-19 07:44:00,67.4,64.0,30.06,North,355,5.8,6.3,89,0.00,FEW,OVC,0.71,WeatherDisplay:10.37,2013-05-19 11:44:00,
2013-05-19 07:49:00,67.4,64.0,30.06,North,355,5.8,6.3,89,0.00,FEW,OVC,0.71,WeatherDisplay:10.37,2013-05-19 11:49:00,
2013-05-19 07:54:00,67.4,64.0,30.06,North,355,5.8,6.3,89,0.00,FEW,OVC,0.71,WeatherDisplay:10.37,2013-05-19 11:54:00,
2013-05-19 07:59:00,67.4,64.0,30.06,North,355,5.8,6.3,89,0.00,FEW,OVC,0.71,WeatherDisplay:10.37,2013-05-19 11:59:00,
2013-05-19 08:04:00,67.4,64.0,30.06,North,355,5.8,6.3,89,0.00,CLR,OVC,0.71,WeatherDisplay:10.37,2013-05-19 12:04:00,
2013-05-19 08:09:00,67.4,64.0,30.06,North,355,5.8,6.3,89,0.00,CLR,OVC,0.71,WeatherDisplay:10.37,2013-05-19 12:09:00,
2013-05-19 08:14:00,67.4,64.0,30.06,North,355,5.8,6.3,89,0.00,CLR,OVC,0.71,WeatherDisplay:10.37,2013-05-19 12:14:00,
2013-05-19 08:19:00,67.4,64.0,30.06,North,355,5.8,6.3,89,0.00,CLR,OVC,0.71,WeatherDisplay:10.37,2013-05-19 12:19:00,
2013-05-19 08:24:00,67.4,64.0,30.06,North,355,5.8,6.3,89,0.00,CLR,OVC,0.71,WeatherDisplay:10.37,2013-05-19 12:24:00,
2013-05-19 08:29:00,67.4,64.0,30.06,North,355,5.8,6.3,89,0.00,CLR,OVC,0.71,WeatherDisplay:10.37,2013-05-19 12:29:00,
2013-05-19 08:34:00,67.4,64.0,30.06,North,355,5.8,6.3,89,0.00,CLR,OVC,0.71,WeatherDisplay:10.37,2013-05-19 12:34:00,
2013-05-19 08:42:00,73.8,71.0,30.10,East,85,5.0,5.0,91,0.00,CLR,OVC,0.71,WeatherDisplay:10.37,2013-05-19 12:42:00,
2013-05-19 08:47:00,74.2,71.4,30.10,ESE,117,4.6,4.6,91,0.00,CLR,OVC,0.71,WeatherDisplay:10.37,2013-05-19 12:47:00,
2013-05-19 08:52:00,74.6,71.5,30.10,ESE,119,3.4,3.4,90,0.00,CLR,OVC,0.71,WeatherDisplay:10.37,2013-05-19 12:52:00,
2013-05-19 08:57:00,75.0,71.9,30.10,East,94,5.8,5.8,90,0.00,CLR,OVC,0.71,WeatherDisplay:10.37,2013-05-19 12:57:00,
2013-05-19 09:02:00,75.7,72.2,30.10,ENE,64,6.9,6.9,89,0.00,FEW,OVC,0.71,WeatherDisplay:10.37,2013-05-19 13:02:00,
2013-05-19 09:07:00,76.1,72.6,30.10,ESE,117,5.0,5.0,89,0.00,FEW,OVC,0.71,WeatherDisplay:10.37,2013-05-19 13:07:00,
2013-05-19 09:12:00,76.2,72.4,30.10,NE,56,5.8,5.8,88,0.00,FEW,OVC,0.71,WeatherDisplay:10.37,2013-05-19 13:12:00,
2013-05-19 09:17:00,76.5,72.7,30.10,ESE,120,4.6,4.6,88,0.00,BKN,OVC,0.71,WeatherDisplay:10.37,2013-05-19 13:17:00,
2013-05-19 09:22:00,76.8,72.6,30.10,ESE,121,9.2,9.2,87,0.00,BKN,OVC,0.71,WeatherDisplay:10.37,2013-05-19 13:22:00,
2013-05-19 09:27:00,77.1,72.6,30.10,ESE,112,5.8,5.8,86,0.00,BKN,OVC,0.71,WeatherDisplay:10.37,2013-05-19 13:27:00,
2013-05-19 09:32:00,77.4,72.9,30.10,SE,127,6.9,6.9,86,0.00,BKN,OVC,0.71,WeatherDisplay:10.37,2013-05-19 13:32:00,
2013-05-19 09:37:00,77.7,72.8,30.10,ESE,112,10.3,10.3,85,0.00,BKN,OVC,0.71,WeatherDisplay:10.37,2013-05-19 13:37:00,
2013-05-19 09:42:00,77.7,72.8,30.10,East,87,5.8,5.8,85,0.00,BKN,OVC,0.71,WeatherDisplay:10.37,2013-05-19 13:42:00,
2013-05-19 09:47:00,77.9,73.0,30.10,SSE,148,8.1,8.1,85,0.00,SCT,OVC,0.71,WeatherDisplay:10.37,2013-05-19 13:47:00,
2013-05-19 09:52:00,78.5,73.6,30.10,East,95,3.4,3.4,85,0.00,SCT,OVC,0.71,WeatherDisplay:10.37,2013-05-19 13:52:00,
2013-05-19 09:57:00,78.9,73.3,30.10,SSE,155,5.8,5.8,83,0.00,SCT,OVC,0.71,WeatherDisplay:10.37,2013-05-19 13:57:00,
2013-05-19 10:02:00,79.4,73.8,30.11,SE,132,5.8,5.8,83,0.00,FEW,OVC,0.71,WeatherDisplay:10.37,2013-05-19 14:02:00,
2013-05-19 10:07:00,79.8,73.4,30.10,SE,127,8.1,8.1,81,0.00,FEW,OVC,0.71,WeatherDisplay:10.37,2013-05-19 14:07:00,
2013-05-19 10:12:00,80.1,73.4,30.10,ESE,118,7.0,7.0,80,0.00,FEW,OVC,0.71,WeatherDisplay:10.37,2013-05-19 14:12:00,
2013-05-19 10:17:00,80.3,73.6,30.10,ENE,77,7.0,7.0,80,0.00,BKN,OVC,0.71,WeatherDisplay:10.37,2013-05-19 14:17:00,
2013-05-19 10:22:00,80.5,73.0,30.10,SSE,157,5.8,5.8,78,0.00,BKN,OVC,0.71,WeatherDisplay:10.37,2013-05-19 14:22:00,
2013-05-19 10:27:00,80.7,73.2,30.10,South,170,3.4,3.4,78,0.00,BKN,OVC,0.71,WeatherDisplay:10.37,2013-05-19 14:27:00,
2013-05-19 10:32:00,80.7,73.6,30.10,ESE,123,3.4,3.4,79,0.00,BKN,OVC,0.71,WeatherDisplay:10.37,2013-05-19 14:32:00,
2013-05-19 10:37:00,80.8,73.7,30.10,South,183,3.4,3.4,79,0.00,BKN,OVC,0.71,WeatherDisplay:10.37,2013-05-19 14:37:00,
2013-05-19 10:42:00,81.5,73.6,30.10,SE,131,4.6,4.6,77,0.00,BKN,OVC,0.71,WeatherDisplay:10.37,2013-05-19 14:42:00,
2013-05-19 10:47:00,82.1,74.2,30.10,ESE,104,5.8,5.8,77,0.00,SCT,OVC,0.71,WeatherDisplay:10.37,2013-05-19 14:47:00,
2013-05-19 10:52:00,82.1,73.8,30.10,SSE,155,3.4,3.4,76,0.00,SCT,OVC,0.71,WeatherDisplay:10.37,2013-05-19 14:52:00,
2013-05-19 10:57:00,82.2,73.5,30.10,East,92,6.0,6.0,75,0.00,SCT,OVC,0.71,WeatherDisplay:10.37,2013-05-19 14:57:00,
2013-05-19 11:02:00,82.4,73.3,30.10,SSE,152,3.4,3.4,74,0.00,CLR,OVC,0.71,WeatherDisplay:10.37,2013-05-19 15:02:00,
2013-05-19 11:07:00,82.5,73.8,30.09,SSW,206,3.4,3.4,75,0.00,CLR,OVC,0.71,WeatherDisplay:10.37,2013-05-19 15:07:00,
2013-05-19 11:12:00,82.8,73.3,30.09,ESE,114,6.9,6.9,73,0.00,CLR,OVC,0.71,WeatherDisplay:10.37,2013-05-19 15:12:00,
2013-05-19 11:17:00,82.7,73.6,30.09,NE,50,3.0,3.0,74,0.00,CLR,OVC,0.71,WeatherDisplay:10.37,2013-05-19 15:17:00,
2013-05-19 11:22:00,83.4,73.8,30.09,SW,214,3.4,3.4,73,0.00,CLR,OVC,0.71,WeatherDisplay:10.37,2013-05-19 15:22:00,
2013-05-19 11:27:00,83.8,73.8,30.09,SSE,159,5.8,5.8,72,0.00,CLR,OVC,0.71,WeatherDisplay:10.37,2013-05-19 15:27:00,
2013-05-19 11:32:00,84.1,73.7,30.09,SSW,199,2.3,2.3,71,0.00,CLR,OVC,0.71,WeatherDisplay:10.37,2013-05-19 15:32:00,
2013-05-19 11:37:00,84.3,73.9,30.09,East,96,4.0,4.0,71,0.00,CLR,OVC,0.71,WeatherDisplay:10.37,2013-05-19 15:37:00,
2013-05-19 11:42:00,85.1,74.2,30.09,SSE,147,6.9,6.9,70,0.00,CLR,OVC,0.71,WeatherDisplay:10.37,2013-05-19 15:42:00,
2013-05-19 11:47:00,84.7,74.3,30.09,ESE,123,3.4,3.4,71,0.00,CLR,OVC,0.71,WeatherDisplay:10.37,2013-05-19 15:47:00,
2013-05-19 11:52:00,84.3,73.4,30.09,SSE,159,4.6,4.6,70,0.00,CLR,OVC,0.71,WeatherDisplay:10.37,2013-05-19 15:52:00,
2013-05-19 11:57:00,84.0,73.2,30.09,East,96,5.8,5.8,70,0.00,CLR,OVC,0.71,WeatherDisplay:10.37,2013-05-19 15:57:00,
2013-05-19 12:02:00,84.2,72.9,30.09,SE,143,5.8,5.8,69,0.00,CLR,OVC,0.71,WeatherDisplay:10.37,2013-05-19 16:02:00,
2013-05-19 12:07:00,84.1,72.8,30.09,SSE,159,3.0,3.0,69,0.00,CLR,OVC,0.71,WeatherDisplay:10.37,2013-05-19 16:07:00,
2013-05-19 12:12:00,84.4,72.7,30.09,ESE,122,3.4,3.4,68,0.00,CLR,OVC,0.71,WeatherDisplay:10.37,2013-05-19 16:12:00,
2013-05-19 12:17:00,84.6,73.3,30.09,East,90,2.3,2.3,69,0.00,CLR,OVC,0.71,WeatherDisplay:10.37,2013-05-19 16:17:00,
2013-05-19 12:22:00,84.5,73.6,30.09,SSW,199,2.3,2.3,70,0.00,CLR,OVC,0.71,WeatherDisplay:10.37,2013-05-19 16:22:00,
2013-05-19 12:27:00,85.3,74.0,30.08,SE,135,3.4,3.4,69,0.00,CLR,OVC,0.71,WeatherDisplay:10.37,2013-05-19 16:27:00,
2013-05-19 12:32:00,86.5,74.7,30.08,NE,52,3.4,3.4,68,0.00,CLR,OVC,0.71,WeatherDisplay:10.37,2013-05-19 16:32:00,
2013-05-19 12:37:00,87.4,74.6,30.08,SE,127,4.6,4.6,66,0.00,CLR,OVC,0.71,WeatherDisplay:10.37,2013-05-19 16:37:00,
2013-05-19 12:42:00,87.9,74.7,30.08,North,355,2.3,2.3,65,0.00,CLR,OVC,0.71,WeatherDisplay:10.37,2013-05-19 16:42:00,
2013-05-19 12:47:00,88.3,75.0,30.08,South,180,4.6,4.6,65,0.00,CLR,OVC,0.71,WeatherDisplay:10.37,2013-05-19 16:47:00,
2013-05-19 12:52:00,87.5,73.3,30.07,East,95,6.0,6.0,63,0.00,CLR,OVC,0.71,WeatherDisplay:10.37,2013-05-19 16:52:00,
2013-05-19 12:57:00,86.8,72.7,30.07,SE,140,8.1,8.1,63,0.00,CLR,OVC,0.71,WeatherDisplay:10.37,2013-05-19 16:57:00,
2013-05-19 13:02:00,86.9,74.2,30.06,ESE,122,4.0,4.0,66,0.00,CLR,OVC,0.71,WeatherDisplay:10.37,2013-05-19 17:02:00,
2013-05-19 13:07:00,86.9,73.7,30.06,East,97,5.0,5.0,65,0.00,CLR,OVC,0.71,WeatherDisplay:10.37,2013-05-19 17:07:00,
2013-05-19 13:12:00,86.8,73.6,30.06,East,97,3.4,3.4,65,0.00,CLR,OVC,0.71,WeatherDisplay:10.37,2013-05-19 17:12:00,
2013-05-19 13:17:00,86.0,72.9,30.05,ESE,118,4.6,4.6,65,0.00,CLR,OVC,0.71,WeatherDisplay:10.37,2013-05-19 17:17:00,
2013-05-19 13:22:00,85.6,72.9,30.05,SSE,154,3.4,3.4,66,0.00,CLR,OVC,0.71,WeatherDisplay:10.37,2013-05-19 17:22:00,
2013-05-19 13:27:00,85.2,73.0,30.05,ESE,103,3.4,3.4,67,0.00,CLR,OVC,0.71,WeatherDisplay:10.37,2013-05-19 17:27:00,
2013-05-19 13:32:00,85.2,72.6,30.05,East,97,5.0,5.0,66,0.00,CLR,OVC,0.71,WeatherDisplay:10.37,2013-05-19 17:32:00,
2013-05-19 13:37:00,85.0,72.4,30.05,ESE,114,3.4,3.4,66,0.00,CLR,OVC,0.71,WeatherDisplay:10.37,2013-05-19 17:37:00,
2013-05-19 13:42:00,85.0,72.8,30.05,SE,132,3.4,3.4,67,0.00,CLR,OVC,0.71,WeatherDisplay:10.37,2013-05-19 17:42:00,
2013-05-19 13:47:00,85.4,73.2,30.04,SE,135,3.4,3.4,67,0.00,CLR,OVC,0.71,WeatherDisplay:10.37,2013-05-19 17:47:00,
2013-05-19 13:52:00,86.7,74.0,30.04,SSE,158,5.8,5.8,66,0.00,CLR,OVC,0.71,WeatherDisplay:10.37,2013-05-19 17:52:00,
2013-05-19 13:57:00,86.9,74.2,30.04,SSE,165,3.4,3.4,66,0.00,CLR,OVC,0.71,WeatherDisplay:10.37,2013-05-19 17:57:00,
2013-05-19 14:02:00,87.9,74.2,30.05,East,99,3.4,3.4,64,0.00,BKN,OVC,0.71,WeatherDisplay:10.37,2013-05-19 18:02:00,
2013-05-19 14:07:00,88.5,73.3,30.04,ESE,116,4.6,4.6,61,0.00,BKN,OVC,0.71,WeatherDisplay:10.37,2013-05-19 18:07:00,
2013-05-19 14:12:00,88.5,73.8,30.04,SSE,154,3.4,3.4,62,0.00,BKN,OVC,0.71,WeatherDisplay:10.37,2013-05-19 18:12:00,
2013-05-19 14:17:00,87.7,74.0,30.04,South,180,3.4,3.4,64,0.00,BKN,OVC,0.71,WeatherDisplay:10.37,2013-05-19 18:17:00,
2013-05-19 14:22:00,86.8,73.2,30.04,SSW,206,2.3,2.3,64,0.00,BKN,OVC,0.71,WeatherDisplay:10.37,2013-05-19 18:22:00,
2013-05-19 14:27:00,86.2,72.6,30.04,SE,127,3.4,3.4,64,0.00,BKN,OVC,0.71,WeatherDisplay:10.37,2013-05-19 18:27:00,
2013-05-19 14:32:00,86.3,73.1,30.04,ENE,74,2.3,2.3,65,0.00,BKN,OVC,0.71,WeatherDisplay:10.37,2013-05-19 18:32:00,
2013-05-19 14:37:00,86.7,72.6,30.04,SE,141,0.0,0.0,63,0.00,BKN,OVC,0.71,WeatherDisplay:10.37,2013-05-19 18:37:00,
2013-05-19 14:42:00,87.2,72.6,30.04,ESE,116,2.3,2.3,62,0.00,BKN,OVC,0.71,WeatherDisplay:10.37,2013-05-19 18:42:00,
2013-05-19 14:47:00,86.9,72.8,30.04,ENE,70,1.1,1.1,63,0.00,BKN,OVC,0.71,WeatherDisplay:10.37,2013-05-19 18:47:00,
2013-05-19 14:52:00,87.1,73.0,30.03,North,4,2.3,2.3,63,0.00,BKN,OVC,0.71,WeatherDisplay:10.37,2013-05-19 18:52:00,
2013-05-19 14:57:00,86.9,72.8,30.03,NNE,25,3.4,3.4,63,0.00,BKN,OVC,0.71,WeatherDisplay:10.37,2013-05-19 18:57:00,
2013-05-19 15:02:00,86.6,73.4,30.03,NNW,329,2.3,2.3,65,0.00,BKN,OVC,0.71,WeatherDisplay:10.37,2013-05-19 19:02:00,
2013-05-19 15:07:00,86.6,73.0,30.03,NNW,333,2.3,2.3,64,0.00,BKN,OVC,0.71,WeatherDisplay:10.37,2013-05-19 19:07:00,
2013-05-19 15:12:00,86.3,73.1,30.02,East,97,2.3,2.3,65,0.00,BKN,OVC,0.71,WeatherDisplay:10.37,2013-05-19 19:12:00,
2013-05-19 15:17:00,86.2,73.5,30.02,SE,134,2.0,2.0,66,0.00,FEW,OVC,0.71,WeatherDisplay:10.37,2013-05-19 19:17:00,
2013-05-19 15:22:00,86.1,73.0,30.01,East,85,2.3,2.3,65,0.00,FEW,OVC,0.71,WeatherDisplay:10.37,2013-05-19 19:22:00,
2013-05-19 15:27:00,86.7,73.1,30.01,ESE,102,2.3,2.3,64,0.00,FEW,OVC,0.71,WeatherDisplay:10.37,2013-05-19 19:27:00,
2013-05-19 15:32:00,86.8,74.5,30.01,NNE,28,3.4,3.4,67,0.00,FEW,OVC,0.71,WeatherDisplay:10.37,2013-05-19 19:32:00,
2013-05-19 15:37:00,86.2,74.8,30.01,ENE,64,4.6,4.6,69,0.00,FEW,OVC,0.71,WeatherDisplay:10.37,2013-05-19 19:37:00,
2013-05-19 15:42:00,85.9,75.4,30.01,ENE,73,4.6,4.6,71,0.00,FEW,OVC,0.71,WeatherDisplay:10.37,2013-05-19 19:42:00,
2013-05-19 15:47:00,85.5,74.6,30.01,ESE,108,8.1,8.1,70,0.00,FEW,OVC,0.71,WeatherDisplay:10.37,2013-05-19 19:47:00,
2013-05-19 15:52:00,85.5,74.2,30.01,ESE,116,5.8,5.8,69,0.00,FEW,OVC,0.71,WeatherDisplay:10.37,2013-05-19 19:52:00,
2013-05-19 15:57:00,85.9,75.0,30.02,ESE,110,11.5,11.5,70,0.00,FEW,OVC,0.71,WeatherDisplay:10.37,2013-05-19 19:57:00,
2013-05-19 16:02:00,85.9,74.1,30.02,SW,230,6.9,6.9,68,0.00,SCT,OVC,0.71,WeatherDisplay:10.37,2013-05-19 20:02:00,
2013-05-19 16:07:00,85.7,73.9,30.02,ENE,64,7.0,7.0,68,0.00,SCT,OVC,0.71,WeatherDisplay:10.37,2013-05-19 20:07:00,
2013-05-19 16:12:00,85.5,74.2,30.02,North,354,6.9,6.9,69,0.00,SCT,OVC,0.71,WeatherDisplay:10.37,2013-05-19 20:12:00,
2013-05-19 16:17:00,85.7,74.4,30.02,NE,52,5.8,5.8,69,0.00,SCT,OVC,0.71,WeatherDisplay:10.37,2013-05-19 20:17:00,
2013-05-19 16:22:00,85.7,74.4,30.02,ESE,110,11.0,11.0,69,0.00,SCT,OVC,0.71,WeatherDisplay:10.37,2013-05-19 20:22:00,
2013-05-19 16:27:00,85.7,74.4,30.02,East,95,5.8,5.8,69,0.00,SCT,OVC,0.71,WeatherDisplay:10.37,2013-05-19 20:27:00,
2013-05-19 16:32:00,84.8,73.9,30.01,ESE,120,8.1,8.1,70,0.00,SCT,OVC,0.71,WeatherDisplay:10.37,2013-05-19 20:32:00,
2013-05-19 16:37:00,83.7,73.7,30.01,SSE,147,6.9,6.9,72,0.00,SCT,OVC,0.71,WeatherDisplay:10.37,2013-05-19 20:37:00,
2013-05-19 16:42:00,83.1,72.7,30.01,East,87,11.5,11.5,71,0.00,SCT,OVC,0.71,WeatherDisplay:10.37,2013-05-19 20:42:00,
2013-05-19 16:47:00,81.7,72.2,30.01,ESE,118,8.0,8.0,73,0.00,SCT,OVC,0.71,WeatherDisplay:10.37,2013-05-19 20:47:00,
2013-05-19 16:52:00,79.9,71.7,30.01,SE,137,6.9,6.9,76,0.00,SCT,OVC,0.71,WeatherDisplay:10.37,2013-05-19 20:52:00,
2013-05-19 16:57:00,79.0,68.8,30.01,SE,134,9.2,9.2,71,0.00,SCT,OVC,0.71,WeatherDisplay:10.37,2013-05-19 20:57:00,
2013-05-19 17:02:00,79.1,68.9,30.01,SE,124,8.1,8.1,71,0.00,SCT,OVC,0.71,WeatherDisplay:10.37,2013-05-19 21:02:00,
2013-05-19 17:07:00,79.0,68.0,30.00,SSE,159,10.3,10.3,69,0.00,SCT,OVC,0.71,WeatherDisplay:10.37,2013-05-19 21:07:00,
2013-05-19 17:12:00,79.0,68.0,30.00,SSE,157,5.8,5.8,69,0.00,SCT,OVC,0.71,WeatherDisplay:10.37,2013-05-19 21:12:00,
2013-05-19 17:17:00,79.7,68.2,30.01,ESE,123,9.0,9.0,68,0.00,BKN,OVC,0.71,WeatherDisplay:10.37,2013-05-19 21:17:00,
2013-05-19 17:22:00,80.5,68.1,30.02,ESE,107,8.1,8.1,66,0.00,BKN,OVC,0.71,WeatherDisplay:10.37,2013-05-19 21:22:00,
2013-05-19 17:27:00,79.9,68.0,30.03,SW,218,8.1,8.1,67,0.00,BKN,OVC,0.71,WeatherDisplay:10.37,2013-05-19 21:27:00,
2013-05-19 17:32:00,77.5,68.2,30.04,West,277,3.4,3.4,73,0.00, +RA,OVC,0.71,WeatherDisplay:10.37,2013-05-19 21:32:00,
2013-05-19 17:37:00,76.3,67.8,30.04,SSE,157,8.1,8.1,75,0.00, +RA,OVC,0.71,WeatherDisplay:10.37,2013-05-19 21:37:00,
2013-05-19 17:42:00,75.8,68.1,30.04,SSE,159,4.6,4.6,77,0.00, +RA,OVC,0.71,WeatherDisplay:10.37,2013-05-19 21:42:00,
2013-05-19 17:47:00,75.8,68.4,30.04,ESE,120,3.4,3.4,78,0.00, +RA,OVC,0.71,WeatherDisplay:10.37,2013-05-19 21:47:00,
2013-05-19 17:52:00,76.1,68.4,30.05,NNE,25,3.0,3.0,77,0.00, +RA,OVC,0.71,WeatherDisplay:10.37,2013-05-19 21:52:00,
2013-05-19 17:57:00,76.3,68.6,30.06,NNW,333,1.1,0.0,77,0.00, +RA,OVC,0.71,WeatherDisplay:10.37,2013-05-19 21:57:00,
2013-05-19 18:02:00,76.2,68.1,30.05,NE,42,3.4,3.4,76,0.00, +RA,OVC,0.71,WeatherDisplay:10.37,2013-05-19 22:02:00,
2013-05-19 18:07:00,76.1,68.4,30.03,ENE,69,2.3,2.3,77,0.00, +RA,OVC,0.71,WeatherDisplay:10.37,2013-05-19 22:07:00,
2013-05-19 18:12:00,76.0,67.9,30.03,ESE,123,3.4,3.4,76,0.00, +RA,OVC,0.71,WeatherDisplay:10.37,2013-05-19 22:12:00,
2013-05-19 18:17:00,75.6,68.3,30.04,SE,140,1.1,1.1,78,0.00, +RA,OVC,0.71,WeatherDisplay:10.37,2013-05-19 22:17:00,
2013-05-19 18:22:00,75.3,68.0,30.04,SSE,159,3.4,3.4,78,0.00, +RA,OVC,0.71,WeatherDisplay:10.37,2013-05-19 22:22:00,
2013-05-19 18:27:00,75.0,67.7,30.03,SSE,153,3.4,3.4,78,0.00, +RA,OVC,0.71,WeatherDisplay:10.37,2013-05-19 22:27:00,
2013-05-19 18:32:00,74.8,67.8,30.03,SW,234,2.3,2.3,79,0.00,-RA,OVC,0.71,WeatherDisplay:10.37,2013-05-19 22:32:00,
2013-05-19 18:37:00,74.7,67.8,30.04,SW,233,1.1,0.0,79,0.00,-RA,OVC,0.71,WeatherDisplay:10.37,2013-05-19 22:37:00,
2013-05-19 18:42:00,74.9,67.6,30.04,NW,315,1.1,1.1,78,0.00,-RA,OVC,0.71,WeatherDisplay:10.37,2013-05-19 22:42:00,
2013-05-19 18:47:00,75.3,68.3,30.03,ESE,107,3.0,3.0,79,0.00,-RA,OVC,0.71,WeatherDisplay:10.37,2013-05-19 22:47:00,
2013-05-19 18:52:00,75.4,68.1,30.03,SE,135,3.0,3.0,78,0.00,-RA,OVC,0.71,WeatherDisplay:10.37,2013-05-19 22:52:00,
2013-05-19 18:57:00,75.4,68.1,30.03,ESE,122,2.3,2.3,78,0.00,-RA,OVC,0.71,WeatherDisplay:10.37,2013-05-19 22:57:00,
2013-05-19 19:02:00,75.4,68.1,30.03,ESE,111,0.0,0.0,78,0.00,CLR,OVC,0.71,WeatherDisplay:10.37,2013-05-19 23:02:00,
2013-05-19 19:07:00,75.5,68.2,30.03,ESE,113,0.0,0.0,78,0.00,CLR,OVC,0.71,WeatherDisplay:10.37,2013-05-19 23:07:00,
2013-05-19 19:12:00,75.5,68.2,30.03,SE,140,0.0,0.0,78,0.00,CLR,OVC,0.71,WeatherDisplay:10.37,2013-05-19 23:12:00,
2013-05-19 19:17:00,75.3,68.3,30.03,SE,139,1.1,0.0,79,0.00,CLR,OVC,0.71,WeatherDisplay:10.37,2013-05-19 23:17:00,
2013-05-19 19:22:00,75.2,68.2,30.03,SE,132,1.1,1.1,79,0.00,CLR,OVC,0.71,WeatherDisplay:10.37,2013-05-19 23:22:00,
2013-05-19 19:27:00,75.3,68.3,30.03,ESE,122,1.1,1.1,79,0.00,CLR,OVC,0.71,WeatherDisplay:10.37,2013-05-19 23:27:00,
2013-05-19 19:32:00,75.3,68.3,30.03,ESE,123,1.1,0.0,79,0.00,CLR,OVC,0.71,WeatherDisplay:10.37,2013-05-19 23:32:00,
2013-05-19 19:37:00,75.2,68.2,30.03,ESE,122,0.0,0.0,79,0.00,CLR,OVC,0.71,WeatherDisplay:10.37,2013-05-19 23:37:00,
2013-05-19 19:42:00,75.0,68.4,30.03,SSW,199,1.1,1.1,80,0.00,CLR,OVC,0.71,WeatherDisplay:10.37,2013-05-19 23:42:00,
2013-05-19 19:47:00,74.8,68.2,30.03,South,189,1.1,1.1,80,0.00,CLR,OVC,0.71,WeatherDisplay:10.37,2013-05-19 23:47:00,
2013-05-19 19:52:00,74.6,68.0,30.04,WSW,240,3.0,3.0,80,0.00,CLR,OVC,0.71,WeatherDisplay:10.37,2013-05-19 23:52:00,
2013-05-19 19:57:00,74.5,68.3,30.04,SW,226,0.0,0.0,81,0.00,CLR,OVC,0.71,WeatherDisplay:10.37,2013-05-19 23:57:00,
2013-05-19 20:02:00,74.4,68.2,30.04,SW,227,0.0,0.0,81,0.00,CLR,OVC,0.71,WeatherDisplay:10.37,2013-05-20 00:02:00,
2013-05-19 20:07:00,74.3,68.1,30.04,SW,226,0.0,0.0,81,0.00,CLR,OVC,0.71,WeatherDisplay:10.37,2013-05-20 00:07:00,
2013-05-19 20:12:00,74.2,68.0,30.04,SW,227,0.0,0.0,81,0.00,CLR,OVC,0.71,WeatherDisplay:10.37,2013-05-20 00:12:00,
2013-05-19 20:17:00,74.1,68.3,30.04,SW,226,0.0,0.0,82,0.00,CLR,OVC,0.71,WeatherDisplay:10.37,2013-05-20 00:17:00,
2013-05-19 20:22:00,74.0,68.5,30.04,SW,222,0.0,0.0,83,0.00,CLR,OVC,0.71,WeatherDisplay:10.37,2013-05-20 00:22:00,
2013-05-19 20:27:00,73.7,68.2,30.03,ESE,107,1.1,1.1,83,0.00,CLR,OVC,0.71,WeatherDisplay:10.37,2013-05-20 00:27:00,
2013-05-19 20:32:00,73.3,68.2,30.04,ESE,110,1.1,1.1,84,0.00,CLR,OVC,0.71,WeatherDisplay:10.37,2013-05-20 00:32:00,
2013-05-19 20:37:00,73.2,68.1,30.04,ESE,111,1.1,1.1,84,0.00,CLR,OVC,0.71,WeatherDisplay:10.37,2013-05-20 00:37:00,
2013-05-19 20:42:00,73.4,68.3,30.05,ESE,102,2.3,2.3,84,0.00,CLR,OVC,0.71,WeatherDisplay:10.37,2013-05-20 00:42:00,
2013-05-19 20:47:00,73.5,68.4,30.05,ESE,117,3.4,3.4,84,0.00,CLR,OVC,0.71,WeatherDisplay:10.37,2013-05-20 00:47:00,
2013-05-19 20:52:00,73.7,68.6,30.05,ESE,122,3.4,3.4,84,0.00,CLR,OVC,0.71,WeatherDisplay:10.37,2013-05-20 00:52:00,
2013-05-19 20:57:00,73.6,68.5,30.05,SE,131,1.1,0.0,84,0.00,CLR,OVC,0.71,WeatherDisplay:10.37,2013-05-20 00:57:00,
2013-05-19 21:02:00,73.3,68.2,30.05,SE,131,0.0,0.0,84,0.00,SCT,OVC,0.71,WeatherDisplay:10.37,2013-05-20 01:02:00,
2013-05-19 21:07:00,73.2,68.4,30.05,ESE,120,2.3,2.3,85,0.00,SCT,OVC,0.71,WeatherDisplay:10.37,2013-05-20 01:07:00,
2013-05-19 21:12:00,73.1,68.0,30.06,ESE,120,0.0,0.0,84,0.00,SCT,OVC,0.71,WeatherDisplay:10.37,2013-05-20 01:12:00,
2013-05-19 21:17:00,72.9,68.1,30.06,ESE,120,1.1,0.0,85,0.00,SCT,OVC,0.71,WeatherDisplay:10.37,2013-05-20 01:17:00,
2013-05-19 21:22:00,72.7,67.9,30.06,ESE,119,0.0,0.0,85,0.00,SCT,OVC,0.71,WeatherDisplay:10.37,2013-05-20 01:22:00,
2013-05-19 21:27:00,72.7,68.3,30.06,ESE,120,0.0,0.0,86,0.00,SCT,OVC,0.71,WeatherDisplay:10.37,2013-05-20 01:27:00,
2013-05-19 21:32:00,72.7,68.3,30.07,ESE,120,0.0,0.0,86,0.00,SCT,OVC,0.71,WeatherDisplay:10.37,2013-05-20 01:32:00,
2013-05-19 21:37:00,72.6,68.2,30.08,ESE,104,1.1,0.0,86,0.00,SCT,OVC,0.71,WeatherDisplay:10.37,2013-05-20 01:37:00,
2013-05-19 21:42:00,72.4,68.0,30.08,ESE,104,0.0,0.0,86,0.00,SCT,OVC,0.71,WeatherDisplay:10.37,2013-05-20 01:42:00,
2013-05-19 21:47:00,72.1,68.0,30.08,ESE,104,0.0,0.0,87,0.00,SCT,OVC,0.71,WeatherDisplay:10.37,2013-05-20 01:47:00,
2013-05-19 21:52:00,72.1,68.0,30.09,ESE,104,0.0,0.0,87,0.00,SCT,OVC,0.71,WeatherDisplay:10.37,2013-05-20 01:52:00,
2013-05-19 21:57:00,72.3,68.2,30.09,ESE,104,0.0,0.0,87,0.00,SCT,OVC,0.71,WeatherDisplay:10.37,2013-05-20 01:57:00,
2013-05-19 22:02:00,72.4,68.3,30.09,ESE,102,0.0,0.0,87,0.00,CLR,OVC,0.71,WeatherDisplay:10.37,2013-05-20 02:02:00,
2013-05-19 22:07:00,72.5,68.4,30.09,ESE,102,1.1,1.1,87,0.00,CLR,OVC,0.71,WeatherDisplay:10.37,2013-05-20 02:07:00,
2013-05-19 22:12:00,72.6,68.5,30.09,ESE,103,0.0,0.0,87,0.00,CLR,OVC,0.71,WeatherDisplay:10.37,2013-05-20 02:12:00,
2013-05-19 22:17:00,72.5,68.4,30.09,ESE,106,0.0,0.0,87,0.00,CLR,OVC,0.71,WeatherDisplay:10.37,2013-05-20 02:17:00,
2013-05-19 22:22:00,72.4,68.3,30.10,ESE,106,1.1,0.0,87,0.00,CLR,OVC,0.71,WeatherDisplay:10.37,2013-05-20 02:22:00,
2013-05-19 22:27:00,72.1,68.0,30.10,ESE,106,1.1,1.1,87,0.00,CLR,OVC,0.71,WeatherDisplay:10.37,2013-05-20 02:27:00,
2013-05-19 22:32:00,71.9,67.8,30.10,ESE,106,0.0,0.0,87,0.00,CLR,OVC,0.71,WeatherDisplay:10.37,2013-05-20 02:32:00,
2013-05-19 22:37:00,71.7,68.0,30.10,ESE,106,0.0,0.0,88,0.00,CLR,OVC,0.71,WeatherDisplay:10.37,2013-05-20 02:37:00,
2013-05-19 22:42:00,71.6,67.9,30.11,ESE,106,0.0,0.0,88,0.00,CLR,OVC,0.71,WeatherDisplay:10.37,2013-05-20 02:42:00,
2013-05-19 22:47:00,71.5,67.8,30.11,ESE,106,0.0,0.0,88,0.00,CLR,OVC,0.71,WeatherDisplay:10.37,2013-05-20 02:47:00,
2013-05-19 22:52:00,71.5,67.8,30.10,ESE,106,0.0,0.0,88,0.00,CLR,OVC,0.71,WeatherDisplay:10.37,2013-05-20 02:52:00,
2013-05-19 22:57:00,71.3,67.6,30.10,ESE,106,0.0,0.0,88,0.00,CLR,OVC,0.71,WeatherDisplay:10.37,2013-05-20 02:57:00,
2013-05-19 23:02:00,71.2,67.5,30.10,ESE,106,0.0,0.0,88,0.00,CLR,OVC,0.71,WeatherDisplay:10.37,2013-05-20 03:02:00,
2013-05-19 23:07:00,71.1,67.4,30.10,ESE,106,0.0,0.0,88,0.00,CLR,OVC,0.71,WeatherDisplay:10.37,2013-05-20 03:07:00,
2013-05-19 23:12:00,71.0,67.3,30.10,ESE,106,0.0,0.0,88,0.00,CLR,OVC,0.71,WeatherDisplay:10.37,2013-05-20 03:12:00,
2013-05-19 23:17:00,70.9,67.5,30.10,ENE,67,1.1,1.1,89,0.00,CLR,OVC,0.71,WeatherDisplay:10.37,2013-05-20 03:17:00,
2013-05-19 23:22:00,70.9,67.5,30.10,NNE,33,1.1,0.0,89,0.00,CLR,OVC,0.71,WeatherDisplay:10.37,2013-05-20 03:22:00,
2013-05-19 23:27:00,71.0,67.6,30.10,East,82,2.3,2.3,89,0.00,CLR,OVC,0.71,WeatherDisplay:10.37,2013-05-20 03:27:00,
2013-05-19 23:32:00,71.2,67.8,30.10,SE,127,3.4,3.4,89,0.00,CLR,OVC,0.71,WeatherDisplay:10.37,2013-05-20 03:32:00,
2013-05-19 23:37:00,71.3,67.6,30.10,ESE,105,2.3,2.3,88,0.00,CLR,OVC,0.71,WeatherDisplay:10.37,2013-05-20 03:37:00,
2013-05-19 23:42:00,71.3,67.6,30.10,ESE,106,0.0,0.1,88,0.00,CLR,OVC,0.71,WeatherDisplay:10.37,2013-05-20 03:42:00,
2013-05-19 23:47:00,71.2,67.5,30.10,SE,130,2.3,2.3,88,0.00,CLR,OVC,0.71,WeatherDisplay:10.37,2013-05-20 03:47:00,
2013-05-19 23:52:00,71.1,67.4,30.10,ESE,107,1.1,0.0,88,0.00,CLR,OVC,0.71,WeatherDisplay:10.37,2013-05-20 03:52:00,
2013-05-19 23:57:00,70.9,67.2,30.10,ESE,103,1.1,1.1,88,0.00,CLR,OVC,0.71,WeatherDisplay:10.37,2013-05-20 03:57:00,